createdAt,value
2019-04-24T00:02:56.417Z,39.23
2019-04-24T00:05:43.705Z,23.70
2019-04-24T00:08:05.288Z,22.90
2019-04-24T00:10:40.893Z,24.37
2019-04-24T00:13:06.696Z,31.03
2019-04-24T00:15:37.492Z,36.07
2019-04-24T00:18:19.497Z,31.23
2019-04-24T00:20:39.744Z,22.63
2019-04-24T00:23:09.565Z,24.63
2019-04-24T00:25:33.327Z,27.10
2019-04-24T00:28:13.129Z,37.03
2019-04-24T00:30:45.070Z,30.47
2019-04-24T00:33:18.507Z,28.03
2019-04-24T00:36:06.075Z,26.67
2019-04-24T00:38:38.274Z,21.03
2019-04-24T00:40:59.778Z,28.73
2019-04-24T00:43:32.000Z,25.00
2019-04-24T00:45:50.270Z,24.07
2019-04-24T00:51:44.598Z,24.50
2019-04-24T00:54:19.765Z,28.03
2019-04-24T00:57:00.567Z,30.90
2019-04-24T00:59:24.847Z,30.00
2019-04-24T01:04:49.472Z,27.30
2019-04-24T01:07:04.068Z,23.80
2019-04-24T01:09:29.079Z,32.23
2019-04-24T01:11:59.958Z,32.50
2019-04-24T01:14:18.055Z,34.83
2019-04-24T01:17:04.484Z,42.53
2019-04-24T01:22:10.034Z,24.13
2019-04-24T01:24:28.487Z,26.93
2019-04-24T01:29:31.941Z,25.73
2019-04-24T01:37:04.165Z,25.40
2019-04-24T01:42:16.380Z,26.03
2019-04-24T01:44:35.741Z,27.00
2019-04-24T01:47:14.529Z,39.73
2019-04-24T01:52:26.678Z,28.00
2019-04-24T01:54:44.346Z,27.47
2019-04-24T01:57:19.902Z,32.57
2019-04-24T01:59:43.807Z,25.63
2019-04-24T02:02:10.438Z,37.70
2019-04-24T02:04:51.354Z,21.90
2019-04-24T02:07:19.947Z,36.30
2019-04-24T02:10:02.153Z,24.10
2019-04-24T02:12:29.039Z,29.70
2019-04-24T02:15:06.170Z,25.70
2019-04-24T02:17:33.094Z,31.97
2019-04-24T02:19:57.131Z,25.43
2019-04-24T02:22:24.305Z,27.40
2019-04-24T02:25:03.162Z,28.27
2019-04-24T02:27:29.023Z,26.07
2019-04-24T02:29:42.488Z,25.10
2019-04-24T02:35:14.889Z,29.90
2019-04-24T02:47:50.392Z,33.80
2019-04-24T02:50:06.271Z,33.40
2019-04-24T02:57:44.327Z,25.63
2019-04-24T03:05:15.151Z,27.73
2019-04-24T03:15:28.948Z,31.40
2019-04-24T03:20:47.280Z,31.70
2019-04-24T03:23:12.250Z,33.07
2019-04-24T03:31:02.983Z,25.57
2019-04-24T03:41:21.786Z,33.60
2019-04-24T03:43:32.858Z,29.17
2019-04-24T03:46:34.314Z,37.67
2019-04-24T03:58:35.462Z,24.00
2019-04-24T04:05:32.996Z,30.43
2019-04-24T04:10:51.573Z,21.17
2019-04-24T04:21:06.328Z,26.73
2019-04-24T04:28:33.741Z,23.33
2019-04-24T04:31:24.071Z,23.37
2019-04-24T04:33:54.618Z,25.37
2019-04-24T04:36:23.278Z,20.23
2019-04-24T04:38:43.539Z,21.43
2019-04-24T04:43:56.544Z,21.77
2019-04-24T04:46:28.710Z,27.93
2019-04-24T04:48:58.454Z,28.57
2019-04-24T04:51:19.778Z,27.00
2019-04-24T04:53:46.277Z,25.40
2019-04-24T05:03:48.922Z,25.07
2019-04-24T05:16:49.653Z,20.03
2019-04-24T05:19:16.957Z,17.60
2019-04-24T05:27:06.347Z,25.33
2019-04-24T05:31:32.755Z,24.83
2019-04-24T05:36:34.529Z,24.53
2019-04-24T05:39:22.505Z,25.83
2019-04-24T05:41:45.842Z,16.60
2019-04-24T05:46:39.180Z,19.13
2019-04-24T05:49:02.713Z,13.67
2019-04-24T05:51:43.895Z,34.80
2019-04-24T05:57:07.773Z,20.90
2019-04-24T05:59:34.884Z,23.83
2019-04-24T06:02:13.706Z,20.20
2019-04-24T06:04:22.931Z,20.10
2019-04-24T06:07:00.429Z,15.00
2019-04-24T06:09:38.223Z,24.73
2019-04-24T06:14:31.521Z,18.93
2019-04-24T06:16:58.255Z,24.67
2019-04-24T06:19:34.151Z,18.73
2019-04-24T06:22:04.940Z,17.90
2019-04-24T06:24:30.576Z,15.63
2019-04-24T06:27:03.754Z,21.50
2019-04-24T06:34:40.829Z,33.57
2019-04-24T06:37:15.370Z,22.87
2019-04-24T06:39:55.742Z,20.63
2019-04-24T06:42:14.625Z,20.30
2019-04-24T06:45:09.304Z,14.03
2019-04-24T06:49:40.140Z,15.37
2019-04-24T06:54:45.591Z,14.70
2019-04-24T06:59:54.102Z,15.40
2019-04-24T07:02:22.863Z,20.63
2019-04-24T07:05:06.575Z,13.40
2019-04-24T07:10:14.873Z,21.57
2019-04-24T07:12:31.717Z,20.60
2019-04-24T07:14:58.878Z,21.03
2019-04-24T07:17:43.460Z,12.30
2019-04-24T07:20:05.177Z,18.07
2019-04-24T07:22:27.210Z,17.47
2019-04-24T07:27:52.262Z,18.30
2019-04-24T07:30:30.323Z,13.93
2019-04-24T07:35:24.956Z,10.40
2019-04-24T07:38:07.410Z,17.30
2019-04-24T07:40:05.904Z,9.37
2019-04-24T07:42:44.414Z,12.10
2019-04-24T07:47:52.985Z,13.77
2019-04-24T07:50:18.961Z,8.23
2019-04-24T07:53:04.062Z,9.80
2019-04-24T07:55:34.113Z,14.93
2019-04-24T07:57:56.108Z,17.70
2019-04-24T08:05:31.714Z,10.30
2019-04-24T08:13:07.784Z,14.37
2019-04-24T08:15:39.509Z,13.63
2019-04-24T08:23:17.707Z,8.97
2019-04-24T08:25:52.554Z,17.30
2019-04-24T08:28:19.911Z,8.73
2019-04-24T08:33:31.879Z,19.73
2019-04-24T08:36:23.402Z,14.00
2019-04-24T08:38:29.185Z,7.47
2019-04-24T08:41:02.863Z,13.20
2019-04-24T08:46:00.679Z,13.60
2019-04-24T08:48:47.225Z,14.07
2019-04-24T08:51:13.043Z,10.60
2019-04-24T08:53:43.937Z,12.97
2019-04-24T08:56:04.071Z,8.70
2019-04-24T09:01:17.872Z,10.20
2019-04-24T09:08:48.033Z,10.90
2019-04-24T09:11:14.629Z,9.40
2019-04-24T09:13:54.507Z,17.47
2019-04-24T09:18:58.906Z,13.07
2019-04-24T09:21:15.729Z,16.70
2019-04-24T09:24:22.936Z,16.07
2019-04-24T09:26:44.806Z,16.70
2019-04-24T09:29:10.121Z,9.57
2019-04-24T09:31:27.362Z,16.33
2019-04-24T09:33:59.819Z,9.60
2019-04-24T09:36:42.675Z,10.93
2019-04-24T09:38:59.617Z,13.63
2019-04-24T09:42:05.845Z,9.80
2019-04-24T09:46:34.914Z,17.00
2019-04-24T09:49:00.549Z,10.30
2019-04-24T09:51:37.423Z,11.27
2019-04-24T09:56:56.842Z,11.10
2019-04-24T09:59:15.848Z,15.80
2019-04-24T10:09:15.398Z,21.13
2019-04-24T10:12:16.929Z,26.00
2019-04-24T10:14:15.680Z,17.20
2019-04-24T10:17:04.274Z,17.80
2019-04-24T10:19:48.754Z,20.53
2019-04-24T10:21:56.821Z,10.97
2019-04-24T10:24:20.625Z,15.53
2019-04-24T10:26:59.806Z,11.37
2019-04-24T10:34:30.824Z,14.23
2019-04-24T10:37:10.626Z,16.30
2019-04-24T10:42:07.571Z,12.00
2019-04-24T10:44:48.218Z,10.13
2019-04-24T10:47:43.424Z,11.47
2019-04-24T10:49:52.197Z,14.53
2019-04-24T10:52:11.938Z,11.13
2019-04-24T10:57:27.302Z,8.70
2019-04-24T11:10:20.809Z,8.20
2019-04-24T11:12:32.192Z,7.73
2019-04-24T11:15:04.642Z,12.83
2019-04-24T11:20:12.106Z,21.70
2019-04-24T11:25:19.921Z,11.60
2019-04-24T11:32:57.878Z,11.00
2019-04-24T11:42:51.545Z,9.00
2019-04-24T11:45:28.200Z,10.10
2019-04-24T11:48:08.487Z,9.17
2019-04-24T11:53:09.934Z,13.87
2019-04-24T11:55:39.104Z,8.93
2019-04-24T12:00:22.351Z,11.27
2019-04-24T12:02:59.407Z,17.17
2019-04-24T12:05:40.237Z,12.47
2019-04-24T12:15:51.360Z,12.80
2019-04-24T12:18:16.264Z,11.90
2019-04-24T12:21:00.648Z,8.73
2019-04-24T12:23:31.037Z,16.57
2019-04-24T12:26:09.485Z,13.00
2019-04-24T12:28:29.499Z,18.60
2019-04-24T12:33:32.324Z,14.37
2019-04-24T12:36:03.870Z,25.37
2019-04-24T12:41:05.654Z,22.63
2019-04-24T12:43:45.234Z,11.87
2019-04-24T12:48:49.116Z,14.50
2019-04-24T12:51:04.192Z,8.30
2019-04-24T12:53:47.413Z,15.50
2019-04-24T12:56:16.844Z,8.50
2019-04-24T13:01:16.439Z,8.83
2019-04-24T13:03:59.647Z,12.13
2019-04-24T13:11:23.216Z,9.73
2019-04-24T13:16:35.093Z,4.47
2019-04-24T13:21:10.683Z,7.43
2019-04-24T13:23:45.914Z,21.47
2019-04-24T13:26:40.544Z,8.77
2019-04-24T13:29:15.677Z,6.20
2019-04-24T13:31:49.446Z,7.03
2019-04-24T13:34:16.932Z,7.63
2019-04-24T13:36:46.754Z,11.05
2019-04-24T13:39:15.286Z,4.87
2019-04-24T13:41:55.851Z,11.87
2019-04-24T13:46:48.706Z,7.03
2019-04-24T13:49:16.723Z,9.30
2019-04-24T13:52:06.705Z,7.87
2019-04-24T13:59:15.412Z,13.60
2019-04-24T14:02:01.301Z,3.30
2019-04-24T14:04:15.850Z,10.10
2019-04-24T14:09:26.058Z,12.13
2019-04-24T14:14:30.215Z,6.07
2019-04-24T14:19:35.402Z,14.07
2019-04-24T14:21:56.063Z,15.93
2019-04-24T14:24:28.174Z,7.67
2019-04-24T14:27:07.018Z,12.47
2019-04-24T14:29:36.378Z,7.97
2019-04-24T14:34:45.133Z,8.20
2019-04-24T14:39:42.898Z,13.50
2019-04-24T14:42:14.950Z,8.80
2019-04-24T14:47:20.413Z,18.73
2019-04-24T14:50:12.451Z,16.83
2019-04-24T14:52:31.590Z,19.27
2019-04-24T14:54:51.813Z,14.37
2019-04-24T14:57:16.747Z,12.83
2019-04-24T14:59:54.842Z,19.77
2019-04-24T15:02:23.279Z,7.87
2019-04-24T15:04:53.501Z,7.77
2019-04-24T15:09:52.479Z,8.33
2019-04-24T15:15:03.671Z,18.63
2019-04-24T15:17:22.414Z,13.53
2019-04-24T15:22:31.567Z,15.63
2019-04-24T15:27:34.059Z,10.60
2019-04-24T15:35:14.494Z,16.20
2019-04-24T15:37:37.140Z,14.40
2019-04-24T15:42:36.957Z,14.17
2019-04-24T15:45:19.542Z,14.10
2019-04-24T15:50:06.676Z,7.50
2019-04-24T15:52:11.907Z,13.60
2019-04-24T15:54:40.933Z,12.60
2019-04-24T15:57:09.656Z,11.00
2019-04-24T16:00:04.172Z,10.90
2019-04-24T16:02:55.562Z,9.37
2019-04-24T16:04:56.808Z,9.70
2019-04-24T16:07:13.471Z,16.83
2019-04-24T16:09:44.159Z,7.80
2019-04-24T16:12:13.113Z,16.13
2019-04-24T16:15:05.144Z,12.93
2019-04-24T16:17:47.123Z,12.27
2019-04-24T16:27:53.357Z,8.53
2019-04-24T16:30:09.565Z,8.57
2019-04-24T16:32:50.130Z,8.20
2019-04-24T16:35:15.208Z,11.30
2019-04-24T16:37:50.810Z,9.73
2019-04-24T16:40:29.862Z,8.33
2019-04-24T16:43:13.249Z,8.10
2019-04-24T16:45:17.895Z,15.43
2019-04-24T16:48:21.490Z,6.70
2019-04-24T16:55:27.549Z,7.90
2019-04-24T16:58:04.985Z,14.90
2019-04-24T17:00:32.780Z,6.00
2019-04-24T17:03:02.219Z,5.43
2019-04-24T17:05:33.455Z,5.47
2019-04-24T17:10:22.783Z,4.00
2019-04-24T17:13:03.029Z,14.43
2019-04-24T17:15:31.177Z,17.37
2019-04-24T17:20:56.161Z,7.73
2019-04-24T17:23:07.476Z,10.10
2019-04-24T17:25:48.592Z,7.30
2019-04-24T17:28:18.839Z,18.40
2019-04-24T17:33:08.677Z,19.53
2019-04-24T17:35:51.001Z,5.07
2019-04-24T17:37:49.740Z,14.80
2019-04-24T17:40:20.811Z,10.93
2019-04-24T17:43:15.153Z,13.10
2019-04-24T17:48:12.904Z,6.20
2019-04-24T17:53:20.141Z,12.00
2019-04-24T17:58:04.369Z,5.13
2019-04-24T18:00:28.597Z,10.30
2019-04-24T18:03:04.756Z,4.20
2019-04-24T18:05:27.876Z,10.87
2019-04-24T18:07:56.855Z,6.43
2019-04-24T18:10:25.710Z,14.03
2019-04-24T18:12:54.581Z,15.90
2019-04-24T18:15:24.189Z,4.07
2019-04-24T18:17:53.147Z,7.83
2019-04-24T18:20:22.317Z,10.93
2019-04-24T18:22:52.289Z,13.70
2019-04-24T18:25:23.434Z,15.07
2019-04-24T18:27:54.387Z,4.50
2019-04-24T18:30:24.719Z,12.10
2019-04-24T18:32:53.615Z,53.57
2019-04-24T18:35:22.479Z,89.77
2019-04-24T18:37:52.879Z,77.93
2019-04-24T18:40:21.853Z,53.63
2019-04-24T18:42:50.947Z,20.60
2019-04-24T18:45:22.188Z,14.53
2019-04-24T18:47:51.871Z,25.20
2019-04-24T18:50:23.107Z,21.70
2019-04-24T18:52:52.531Z,21.03
2019-04-24T18:55:21.767Z,14.07
2019-04-24T18:57:50.751Z,8.27
2019-04-24T19:00:19.742Z,7.33
2019-04-24T19:02:48.573Z,8.40
2019-04-24T19:05:17.383Z,3.20
2019-04-24T19:07:46.414Z,9.43
2019-04-24T19:10:15.618Z,18.07
2019-04-24T19:12:44.594Z,7.33
2019-04-24T19:15:13.893Z,5.97
2019-04-24T19:17:54.292Z,5.23
2019-04-24T19:20:14.590Z,9.33
2019-04-24T19:22:43.847Z,7.43
2019-04-24T19:25:13.815Z,7.17
2019-04-24T19:27:42.729Z,5.13
2019-04-24T19:30:13.456Z,11.23
2019-04-24T19:32:42.292Z,3.23
2019-04-24T19:35:12.174Z,4.00
2019-04-24T19:37:42.292Z,3.10
2019-04-24T19:40:25.528Z,3.63
2019-04-24T19:42:42.057Z,9.73
2019-04-24T19:45:11.487Z,1.30
2019-04-24T19:47:41.857Z,1.40
2019-04-24T19:50:12.671Z,1.67
2019-04-24T19:52:41.919Z,2.00
2019-04-24T19:55:15.520Z,1.10
2019-04-24T19:57:42.477Z,2.60
2019-04-24T20:00:13.346Z,3.50
2019-04-24T20:02:42.256Z,1.60
2019-04-24T20:05:14.515Z,1.50
2019-04-24T20:07:42.264Z,4.00
2019-04-24T20:10:13.463Z,1.53
2019-04-24T20:12:42.285Z,2.77
2019-04-24T20:15:14.209Z,5.47
2019-04-24T20:17:43.754Z,3.73
2019-04-24T20:20:13.650Z,0.90
2019-04-24T20:22:42.712Z,4.00
2019-04-24T20:25:11.830Z,1.53
2019-04-24T20:27:41.502Z,1.40
2019-04-24T20:30:12.124Z,1.07
2019-04-24T20:32:41.389Z,5.97
2019-04-24T20:35:10.427Z,6.47
2019-04-24T20:37:39.310Z,1.50
2019-04-24T20:40:10.021Z,1.20
2019-04-24T20:42:40.086Z,3.83
2019-04-24T20:45:11.439Z,0.80
2019-04-24T20:47:41.309Z,3.57
2019-04-24T20:50:14.024Z,1.03
2019-04-24T20:52:43.941Z,1.37
2019-04-24T20:55:13.122Z,2.43
2019-04-24T20:57:42.132Z,4.07
2019-04-24T21:00:11.821Z,1.97
2019-04-24T21:02:42.797Z,1.73
2019-04-24T21:05:17.586Z,1.13
2019-04-24T21:07:49.359Z,0.90
2019-04-24T21:10:19.966Z,2.70
2019-04-24T21:12:49.461Z,0.80
2019-04-24T21:15:20.395Z,1.10
2019-04-24T21:17:49.420Z,1.27
2019-04-24T21:20:18.278Z,1.93
2019-04-24T21:22:47.085Z,0.87
2019-04-24T21:25:15.857Z,1.40
2019-04-24T21:27:44.649Z,1.87
2019-04-24T21:30:14.573Z,1.67
2019-04-24T21:32:43.418Z,1.23
2019-04-24T21:35:12.991Z,1.37
2019-04-24T21:37:47.492Z,0.80
2019-04-24T21:40:16.996Z,1.00
2019-04-24T21:42:45.920Z,0.80
2019-04-24T21:45:16.115Z,0.90
2019-04-24T21:47:47.085Z,0.80
2019-04-24T21:50:16.682Z,0.80
2019-04-24T21:52:45.555Z,0.80
2019-04-24T21:55:14.510Z,1.30
2019-04-24T21:57:45.399Z,1.03
2019-04-24T22:00:18.593Z,1.10
2019-04-24T22:02:49.321Z,0.83
2019-04-24T22:05:21.420Z,0.90
2019-04-24T22:07:50.324Z,2.00
2019-04-24T22:10:19.093Z,0.93
2019-04-24T22:12:48.243Z,1.07
2019-04-24T22:15:18.079Z,0.80
2019-04-24T22:17:46.945Z,1.67
2019-04-24T22:20:18.750Z,0.90
2019-04-24T22:22:55.601Z,3.33
2019-04-24T22:25:19.695Z,1.17
2019-04-24T22:27:48.551Z,0.90
2019-04-24T22:30:19.651Z,0.90
2019-04-24T22:32:48.282Z,6.33
2019-04-24T22:35:18.618Z,0.70
2019-04-24T22:37:47.490Z,0.80
2019-04-24T22:40:17.834Z,1.23
2019-04-24T22:42:46.773Z,0.80
2019-04-24T22:45:16.186Z,1.30
2019-04-24T22:47:44.999Z,0.70
2019-04-24T22:50:14.343Z,0.70
2019-04-24T22:52:43.081Z,0.70
2019-04-24T22:55:14.649Z,0.70
2019-04-24T22:57:43.632Z,1.27
2019-04-24T23:00:14.933Z,1.20
2019-04-24T23:02:43.709Z,1.30
2019-04-24T23:05:12.453Z,0.70
2019-04-24T23:07:41.224Z,0.77
2019-04-24T23:10:10.320Z,0.90
2019-04-24T23:12:39.397Z,1.00
2019-04-24T23:15:08.435Z,1.07
2019-04-24T23:17:38.015Z,0.80
2019-04-24T23:20:09.519Z,0.70
2019-04-24T23:22:40.157Z,3.13
2019-04-24T23:25:12.001Z,0.80
2019-04-24T23:27:43.527Z,0.90
2019-04-24T23:30:14.328Z,2.80
2019-04-24T23:32:44.747Z,0.70
2019-04-24T23:35:13.771Z,0.90
2019-04-24T23:37:44.545Z,1.00
2019-04-24T23:40:13.241Z,0.97
2019-04-24T23:42:42.319Z,1.43
2019-04-24T23:45:12.299Z,1.30
2019-04-24T23:47:41.574Z,1.00
2019-04-24T23:50:12.011Z,2.10
2019-04-24T23:52:41.954Z,1.00
2019-04-24T23:55:12.038Z,1.10
2019-04-24T23:57:40.889Z,1.03
